Time;durP1;ratioP1;P1;durP2;ratioP2;P2;SDS_P1;SDS_P2;PMS_P1;PMS_P2;Temp;Humidity;BMP_temperature;BMP_pressure;BME280_temperature;BME280_humidity;BME280_pressure;Samples;Min_cycle;Max_cycle;Signal;HPM_P1;HPM_P2
2022/09/09 00:00:49;;;;;;;20.17;14.98;;;18.10;99.90;;;;;;5066239;28;20040;-55
2022/09/09 00:03:19;;;;;;;11.07;6.45;;;18.20;99.90;;;;;;5067739;28;20024;-55
2022/09/09 00:06:18;;;;;;;7.15;4.78;;;18.20;99.90;;;;;;5037684;28;20032;-54
2022/09/09 00:09:00;;;;;;;4.43;3.28;;;18.20;99.90;;;;;;5056178;28;20036;-52
2022/09/09 00:11:56;;;;;;;6.35;3.53;;;18.20;99.90;;;;;;5071477;28;20422;-55
2022/09/09 00:14:51;;;;;;;4.60;3.20;;;18.20;99.90;;;;;;5072629;28;20041;-52
2022/09/09 00:17:33;;;;;;;4.60;2.70;;;18.10;99.90;;;;;;5077267;28;20055;-52
2022/09/09 00:20:04;;;;;;;5.22;4.07;;;18.10;99.90;;;;;;5070749;28;20074;-54
2022/09/09 00:22:32;;;;;;;7.15;5.22;;;18.00;99.90;;;;;;5068009;28;20021;-51
2022/09/09 00:25:38;;;;;;;4.95;2.70;;;18.00;99.80;;;;;;5069777;28;20047;-54
2022/09/09 00:28:20;;;;;;;3.65;2.58;;;17.90;99.90;;;;;;5059650;28;20109;-54
2022/09/09 00:30:49;;;;;;;5.03;3.70;;;17.80;99.90;;;;;;5073797;28;20493;-50
2022/09/09 00:33:20;;;;;;;4.25;2.95;;;17.80;99.90;;;;;;5065361;28;20036;-55
2022/09/09 00:35:53;;;;;;;8.80;5.60;;;17.70;99.90;;;;;;5084319;28;20485;-51
2022/09/09 00:38:41;;;;;;;5.65;3.55;;;17.60;99.90;;;;;;5073568;28;20123;-53
2022/09/09 00:41:26;;;;;;;5.57;3.13;;;17.50;99.90;;;;;;5073207;28;20473;-52
2022/09/09 00:44:20;;;;;;;5.32;3.10;;;17.50;99.90;;;;;;5073562;28;20123;-54
2022/09/09 00:47:30;;;;;;;5.13;2.95;;;17.60;99.90;;;;;;5063882;28;20497;-55
2022/09/09 00:50:11;;;;;;;4.15;2.90;;;17.50;99.90;;;;;;5068524;28;20040;-57
2022/09/09 00:52:47;;;;;;;5.22;3.22;;;17.50;99.90;;;;;;5071816;28;20028;-54
2022/09/09 00:55:40;;;;;;;4.72;2.78;;;17.50;99.90;;;;;;5093076;28;20064;-55
2022/09/09 00:58:08;;;;;;;7.20;3.63;;;17.50;99.90;;;;;;5065616;28;20036;-56
2022/09/09 01:00:51;;;;;;;6.43;3.00;;;17.50;99.90;;;;;;5072097;28;20024;-58
2022/09/09 01:03:25;;;;;;;5.70;3.40;;;17.50;99.90;;;;;;5054468;28;20024;-53
2022/09/09 01:05:57;;;;;;;;;;;17.50;99.90;;;;;;5073544;28;20036;-54
2022/09/09 01:08:38;;;;;;;6.72;3.35;;;17.40;99.90;;;;;;5070352;28;19959;-56
2022/09/09 01:11:27;;;;;;;6.28;3.47;;;17.50;99.90;;;;;;5072380;28;20063;-57
2022/09/09 01:14:36;;;;;;;5.95;3.00;;;17.60;99.90;;;;;;5072056;28;20400;-55
2022/09/09 01:17:28;;;;;;;3.58;2.80;;;17.60;99.90;;;;;;5072106;28;20017;-55
2022/09/09 01:20:23;;;;;;;5.85;3.47;;;17.60;99.90;;;;;;5056413;28;20394;-57
2022/09/09 01:23:40;;;;;;;6.05;4.85;;;17.60;99.90;;;;;;5074026;28;20493;-55
2022/09/09 01:26:45;;;;;;;4.57;3.15;;;17.60;99.90;;;;;;5057734;28;20029;-57
2022/09/09 01:29:32;;;;;;;6.68;3.72;;;17.60;99.90;;;;;;5071226;28;20035;-52
2022/09/09 01:32:46;;;;;;;7.13;3.20;;;17.60;99.90;;;;;;5079524;28;20036;-56
2022/09/09 01:35:48;;;;;;;4.00;2.78;;;17.60;99.90;;;;;;5090770;28;20048;-56
2022/09/09 01:38:35;;;;;;;4.22;3.10;;;17.60;99.90;;;;;;5071212;28;20098;-52
2022/09/09 01:41:21;;;;;;;5.20;2.80;;;17.50;99.90;;;;;;5076127;28;20396;-54
2022/09/09 01:44:08;;;;;;;4.63;3.03;;;17.50;99.90;;;;;;5077691;28;20032;-55
2022/09/09 01:46:54;;;;;;;7.38;3.15;;;17.60;99.90;;;;;;5081045;28;20081;-54
2022/09/09 01:49:40;;;;;;;5.90;3.17;;;17.60;99.90;;;;;;5077100;28;20099;-53
2022/09/09 01:52:27;;;;;;;3.75;2.65;;;17.60;99.90;;;;;;5075962;28;20027;-56
2022/09/09 01:55:13;;;;;;;4.88;3.08;;;17.60;99.90;;;;;;5091293;28;20055;-55
2022/09/09 01:58:27;;;;;;;6.97;3.22;;;17.50;99.90;;;;;;5071916;28;20025;-53
2022/09/09 02:01:39;;;;;;;5.13;2.67;;;17.50;99.90;;;;;;5050674;28;20064;-56
2022/09/09 02:04:37;;;;;;;3.35;2.72;;;17.40;99.90;;;;;;5069026;28;20028;-56
2022/09/09 02:07:47;;;;;;;5.35;3.17;;;17.30;99.90;;;;;;5077627;28;20025;-57
2022/09/09 02:10:44;;;;;;;6.43;4.57;;;17.50;99.90;;;;;;5070847;28;20021;-52
2022/09/09 02:13:34;;;;;;;6.20;4.38;;;17.50;99.90;;;;;;5051030;28;20036;-54
2022/09/09 02:16:31;;;;;;;5.57;3.10;;;17.60;99.90;;;;;;5040783;28;20056;-56
2022/09/09 02:19:44;;;;;;;3.92;3.13;;;17.60;99.90;;;;;;5089763;28;20496;-54
2022/09/09 02:22:34;;;;;;;6.28;2.95;;;17.60;99.90;;;;;;5078287;28;20037;-57
2022/09/09 02:25:24;;;;;;;3.75;2.80;;;17.60;99.90;;;;;;5054944;28;20036;-58
2022/09/09 02:28:13;;;;;;;4.57;3.05;;;17.60;99.90;;;;;;5069131;28;20493;-56
2022/09/09 02:31:00;;;;;;;5.20;2.90;;;17.60;99.90;;;;;;5070122;28;20032;-55
2022/09/09 02:33:52;;;;;;;4.20;2.90;;;17.60;99.90;;;;;;5023033;28;20041;-56
2022/09/09 02:36:43;;;;;;;5.13;3.30;;;17.60;99.90;;;;;;5055892;28;20033;-57
2022/09/09 02:39:29;;;;;;;5.70;3.63;;;17.50;99.90;;;;;;5074321;28;20055;-54
2022/09/09 02:42:15;;;;;;;5.60;3.22;;;17.50;99.90;;;;;;5061076;28;20024;-54
2022/09/09 02:45:01;;;;;;;5.05;3.15;;;17.60;99.90;;;;;;5070252;28;20059;-56
2022/09/09 02:47:48;;;;;;;4.18;2.95;;;17.60;99.90;;;;;;5087810;28;20085;-53
2022/09/09 02:50:57;;;;;;;6.93;3.20;;;17.60;99.90;;;;;;5089810;28;20112;-52
2022/09/09 02:53:53;;;;;;;4.43;3.20;;;17.60;99.90;;;;;;5049873;28;20036;-54
2022/09/09 02:56:45;;;;;;;9.38;6.07;;;17.60;99.90;;;;;;5065462;28;20050;-51
2022/09/09 02:59:31;;;;;;;8.52;3.55;;;17.60;99.90;;;;;;5090193;28;20024;-54
2022/09/09 03:02:18;;;;;;;8.30;3.42;;;17.50;99.90;;;;;;5076748;28;20314;-55
2022/09/09 03:05:06;;;;;;;4.72;2.95;;;17.40;99.90;;;;;;5080016;28;20024;-53
2022/09/09 03:07:52;;;;;;;5.05;3.10;;;17.40;99.90;;;;;;5089480;28;20020;-54
2022/09/09 03:10:38;;;;;;;5.03;2.70;;;17.40;99.90;;;;;;5069033;28;20524;-54
2022/09/09 03:13:25;;;;;;;10.18;3.17;;;17.50;99.90;;;;;;5054253;28;20032;-59
2022/09/09 03:16:10;;;;;;;5.50;3.08;;;17.50;99.90;;;;;;5087438;28;20028;-56
2022/09/09 03:18:56;;;;;;;9.32;6.32;;;17.50;99.90;;;;;;5075268;28;20028;-55
2022/09/09 03:21:42;;;;;;;6.35;4.95;;;17.50;99.90;;;;;;5049108;28;20037;-56
2022/09/09 03:24:28;;;;;;;5.68;3.15;;;17.50;99.90;;;;;;5055221;28;20556;-57
2022/09/09 03:27:14;;;;;;;5.30;3.17;;;17.50;99.90;;;;;;5089358;28;20384;-58
2022/09/09 03:30:03;;;;;;;4.72;3.60;;;17.40;99.90;;;;;;5082704;28;20366;-56
2022/09/09 03:32:49;;;;;;;7.57;3.80;;;17.40;99.90;;;;;;5069187;28;20408;-55
2022/09/09 03:35:36;;;;;;;6.75;3.88;;;17.40;99.90;;;;;;5088080;28;20028;-57
2022/09/09 03:38:25;;;;;;;8.00;3.20;;;17.40;99.90;;;;;;5088168;28;20047;-57
2022/09/09 03:41:12;;;;;;;4.93;3.63;;;17.40;99.90;;;;;;5048288;28;20163;-53
2022/09/09 03:43:58;;;;;;;5.95;3.97;;;17.40;99.90;;;;;;5060184;28;20024;-54
2022/09/09 03:46:44;;;;;;;7.00;4.13;;;17.40;99.90;;;;;;5088915;28;20403;-56
2022/09/09 03:49:30;;;;;;;6.78;4.40;;;17.50;99.90;;;;;;5080256;28;20040;-56
2022/09/09 03:52:16;;;;;;;4.32;3.50;;;17.50;99.90;;;;;;5067343;28;20032;-53
2022/09/09 03:55:02;;;;;;;6.57;4.10;;;17.50;99.90;;;;;;5050380;28;20044;-50
2022/09/09 03:57:49;;;;;;;9.25;6.22;;;17.50;99.90;;;;;;5053084;28;20483;-55
2022/09/09 04:00:35;;;;;;;8.30;6.35;;;17.50;99.90;;;;;;5088273;28;20035;-57
2022/09/09 04:03:24;;;;;;;10.95;6.03;;;17.50;99.90;;;;;;5083763;28;20025;-55
2022/09/09 04:06:13;;;;;;;27.05;16.25;;;17.50;99.90;;;;;;5072916;28;20492;-54
2022/09/09 04:08:59;;;;;;;19.30;12.88;;;17.50;99.90;;;;;;5074407;28;20093;-56
2022/09/09 04:11:46;;;;;;;14.35;8.57;;;17.50;99.90;;;;;;5072445;28;20024;-55
2022/09/09 04:14:31;;;;;;;10.52;6.03;;;17.40;99.90;;;;;;5038796;28;20512;-56
2022/09/09 04:17:18;;;;;;;8.48;5.20;;;17.50;99.90;;;;;;5058716;28;20028;-52
2022/09/09 04:20:04;;;;;;;7.20;4.95;;;17.50;99.90;;;;;;5078500;28;20361;-55
2022/09/09 04:22:50;;;;;;;6.93;4.35;;;17.40;99.90;;;;;;5085089;28;20466;-55
2022/09/09 04:25:36;;;;;;;9.00;4.78;;;17.40;99.90;;;;;;5072996;28;20032;-58
2022/09/09 04:28:24;;;;;;;8.00;5.50;;;17.40;99.90;;;;;;5083329;28;20081;-57
2022/09/09 04:31:17;;;;;;;9.38;4.72;;;17.40;99.90;;;;;;5091635;28;20028;-57
2022/09/09 04:34:05;;;;;;;6.10;4.53;;;17.40;99.90;;;;;;5091037;28;20040;-55
2022/09/09 04:36:51;;;;;;;6.20;3.92;;;17.30;99.90;;;;;;5091750;28;20112;-55
2022/09/09 04:39:37;;;;;;;5.47;3.80;;;17.30;99.90;;;;;;5092303;28;20028;-57
2022/09/09 04:42:23;;;;;;;7.55;3.95;;;17.30;99.90;;;;;;5056577;28;20622;-58
2022/09/09 04:45:11;;;;;;;7.15;3.80;;;17.30;99.90;;;;;;5072431;28;20052;-57
2022/09/09 04:47:57;;;;;;;5.63;3.70;;;17.30;99.90;;;;;;5083050;28;20020;-57
2022/09/09 04:50:43;;;;;;;8.82;3.75;;;17.30;99.90;;;;;;5076620;28;20404;-57
2022/09/09 04:53:29;;;;;;;6.35;4.35;;;17.40;99.90;;;;;;5077520;28;20035;-57
2022/09/09 04:56:16;;;;;;;7.00;4.03;;;17.40;99.90;;;;;;5091624;28;20028;-58
2022/09/09 04:59:03;;;;;;;12.27;4.88;;;17.40;99.90;;;;;;5091954;28;20034;-54
2022/09/09 05:01:50;;;;;;;6.95;5.18;;;17.40;99.90;;;;;;5060668;28;20036;-56
2022/09/09 05:04:35;;;;;;;5.55;4.18;;;17.50;99.90;;;;;;5052800;28;20112;-57
2022/09/09 05:07:22;;;;;;;9.20;4.93;;;17.40;99.90;;;;;;5091230;28;20129;-59
2022/09/09 05:10:08;;;;;;;11.77;4.88;;;17.40;99.90;;;;;;5090057;28;20289;-56
2022/09/09 05:12:54;;;;;;;9.35;5.00;;;17.40;99.90;;;;;;5077525;28;20074;-57
2022/09/09 05:15:42;;;;;;;8.68;6.60;;;17.40;99.90;;;;;;5088866;28;20040;-58
2022/09/09 05:18:28;;;;;;;6.97;4.82;;;17.30;99.90;;;;;;5091030;28;20120;-57
2022/09/09 05:21:15;;;;;;;12.90;5.22;;;17.40;99.90;;;;;;5073125;28;20052;-56
2022/09/09 05:24:01;;;;;;;13.00;5.93;;;17.40;99.90;;;;;;5071443;28;20397;-58
2022/09/09 05:26:48;;;;;;;8.57;5.65;;;17.40;99.90;;;;;;5073055;28;20037;-56
2022/09/09 05:29:34;;;;;;;11.30;5.32;;;17.30;99.90;;;;;;5089758;28;20032;-57
2022/09/09 05:32:20;;;;;;;6.95;4.88;;;17.40;99.90;;;;;;5066979;28;20032;-56
2022/09/09 05:35:06;;;;;;;10.30;5.85;;;17.40;99.90;;;;;;5077932;28;20043;-57
2022/09/09 05:37:52;;;;;;;10.00;5.93;;;17.40;99.90;;;;;;5087775;28;20842;-58
2022/09/09 05:40:38;;;;;;;7.65;5.05;;;17.40;99.90;;;;;;5056357;28;20029;-59
2022/09/09 05:43:25;;;;;;;9.05;4.50;;;17.50;99.90;;;;;;5055269;28;20032;-58
2022/09/09 05:46:14;;;;;;;6.97;4.15;;;17.50;99.90;;;;;;5065504;28;20037;-57
2022/09/09 05:49:01;;;;;;;10.30;4.63;;;17.60;99.90;;;;;;5067994;28;20028;-56
2022/09/09 05:51:48;;;;;;;12.80;4.72;;;17.70;99.90;;;;;;5055756;28;20465;-57
2022/09/09 05:54:33;;;;;;;12.05;6.85;;;17.80;99.90;;;;;;5055919;28;20068;-58
2022/09/09 05:57:20;;;;;;;6.72;4.15;;;17.90;99.90;;;;;;5071479;28;20119;-59
2022/09/09 06:00:07;;;;;;;8.95;4.53;;;18.00;99.90;;;;;;5055317;28;20025;-57
2022/09/09 06:02:53;;;;;;;8.88;5.07;;;18.00;99.90;;;;;;5071739;28;20545;-58
2022/09/09 06:05:39;;;;;;;8.80;4.75;;;17.90;99.90;;;;;;5076920;28;20377;-57
2022/09/09 06:08:25;;;;;;;11.73;4.07;;;17.90;99.90;;;;;;5090438;28;20103;-57
2022/09/09 06:11:14;;;;;;;7.82;4.68;;;17.90;99.90;;;;;;5075537;28;20032;-58
2022/09/09 06:14:00;;;;;;;13.70;4.82;;;17.80;99.90;;;;;;5089269;28;20028;-58
2022/09/09 06:16:46;;;;;;;10.55;4.18;;;17.70;99.90;;;;;;5076576;28;20451;-58
2022/09/09 06:19:32;;;;;;;7.43;4.03;;;17.80;99.90;;;;;;5076542;28;20075;-59
2022/09/09 06:22:18;;;;;;;9.60;4.43;;;17.70;99.90;;;;;;5070098;28;20025;-57
2022/09/09 06:25:05;;;;;;;16.10;4.63;;;17.50;99.90;;;;;;5057109;28;20029;-55
2022/09/09 06:27:51;;;;;;;7.85;4.60;;;17.50;99.90;;;;;;5074952;28;20078;-56
2022/09/09 06:30:36;;;;;;;8.02;4.43;;;17.40;99.90;;;;;;5062830;28;20053;-56
2022/09/09 06:33:22;;;;;;;26.80;6.57;;;17.40;99.90;;;;;;5049839;28;20216;-56
2022/09/09 06:36:16;;;;;;;22.65;6.15;;;17.40;99.90;;;;;;5044193;28;20130;-55
2022/09/09 06:39:03;;;;;;;17.20;5.68;;;17.40;99.90;;;;;;5080740;28;20377;-54
2022/09/09 06:41:52;;;;;;;13.93;4.82;;;17.60;99.90;;;;;;5089651;28;20036;-57
2022/09/09 06:44:38;;;;;;;8.10;5.28;;;17.60;99.90;;;;;;5088899;28;20036;-56
2022/09/09 06:47:24;;;;;;;8.30;4.28;;;17.70;99.90;;;;;;5085241;28;20028;-60
2022/09/09 06:50:11;;;;;;;10.57;6.00;;;17.80;99.90;;;;;;5068034;28;20036;-55
2022/09/09 06:52:57;;;;;;;5.65;3.65;;;17.90;99.90;;;;;;5042973;28;20028;-57
2022/09/09 06:55:44;;;;;;;8.63;3.45;;;18.00;99.60;;;;;;5089472;28;20166;-57
2022/09/09 06:58:31;;;;;;;10.68;4.10;;;18.00;99.90;;;;;;5071326;28;20119;-57
2022/09/09 07:01:19;;;;;;;6.55;3.15;;;18.20;99.70;;;;;;5085309;28;20045;-55
2022/09/09 07:04:07;;;;;;;6.28;3.55;;;18.30;99.20;;;;;;5055506;28;20028;-57
2022/09/09 07:06:53;;;;;;;10.65;3.70;;;18.30;99.10;;;;;;5054270;28;20025;-60
2022/09/09 07:09:40;;;;;;;7.15;3.10;;;18.40;99.10;;;;;;5057713;28;20032;-55
2022/09/09 07:12:26;;;;;;;13.88;3.75;;;18.50;98.80;;;;;;5055366;28;20497;-58
2022/09/09 07:15:12;;;;;;;14.68;5.85;;;18.50;98.70;;;;;;5068948;28;20032;-56
2022/09/09 07:18:01;;;;;;;6.75;3.13;;;18.60;98.70;;;;;;5063557;28;20032;-55
2022/09/09 07:20:57;;;;;;;6.15;3.22;;;18.60;98.60;;;;;;5078041;28;20032;-56
2022/09/09 07:23:43;;;;;;;13.73;3.40;;;18.70;98.80;;;;;;5055489;28;20447;-54
2022/09/09 07:26:30;;;;;;;6.07;3.00;;;18.60;98.70;;;;;;5055343;28;20021;-55
2022/09/09 07:29:16;;;;;;;12.70;3.60;;;18.60;98.90;;;;;;5070093;28;20107;-55
2022/09/09 07:32:04;;;;;;;8.93;3.30;;;18.50;98.90;;;;;;5066878;28;20561;-55
2022/09/09 07:34:50;;;;;;;6.13;3.13;;;18.60;98.90;;;;;;5036973;28;20079;-58
2022/09/09 07:37:37;;;;;;;12.57;3.08;;;18.60;98.80;;;;;;5054623;28;20028;-54
2022/09/09 07:40:24;;;;;;;8.98;3.30;;;18.70;98.60;;;;;;5073898;28;20535;-55
2022/09/09 07:43:09;;;;;;;9.60;3.05;;;18.80;98.60;;;;;;5087152;28;20025;-57
2022/09/09 07:46:01;;;;;;;5.95;2.83;;;19.10;98.20;;;;;;5073332;28;20043;-54
2022/09/09 07:48:52;;;;;;;6.88;2.70;;;18.90;97.90;;;;;;5086965;28;20086;-55
2022/09/09 07:51:44;;;;;;;7.25;3.15;;;18.90;98.30;;;;;;5072685;28;20110;-52
2022/09/09 07:54:30;;;;;;;5.43;2.55;;;18.90;98.10;;;;;;5066410;28;20094;-52
2022/09/09 07:57:16;;;;;;;8.05;3.50;;;18.80;98.80;;;;;;5063811;28;20029;-52
2022/09/09 08:00:04;;;;;;;7.90;3.33;;;18.90;98.70;;;;;;5056334;28;20028;-55
2022/09/09 08:02:50;;;;;;;5.22;2.88;;;19.00;99.00;;;;;;5078508;28;20029;-52
2022/09/09 08:05:36;;;;;;;7.13;2.85;;;19.10;98.70;;;;;;5072863;28;20434;-53
2022/09/09 08:08:22;;;;;;;7.63;3.45;;;19.10;98.70;;;;;;5073072;28;20113;-56
2022/09/09 08:11:14;;;;;;;8.95;3.20;;;19.20;98.60;;;;;;5084084;28;20279;-55
2022/09/09 08:14:00;;;;;;;6.70;3.10;;;19.20;98.60;;;;;;5058181;28;20374;-54
2022/09/09 08:16:48;;;;;;;7.78;3.05;;;19.40;98.40;;;;;;5070871;28;20044;-55
2022/09/09 08:19:35;;;;;;;5.28;2.85;;;19.40;98.40;;;;;;5071948;28;20024;-57
2022/09/09 08:22:21;;;;;;;8.02;3.35;;;19.50;98.50;;;;;;5052976;28;20441;-54
2022/09/09 08:25:08;;;;;;;5.25;2.63;;;19.70;98.50;;;;;;5054307;28;20029;-52
2022/09/09 08:27:54;;;;;;;5.88;2.80;;;19.70;97.80;;;;;;5053927;28;20029;-54
2022/09/09 08:30:40;;;;;;;7.93;2.97;;;19.70;97.90;;;;;;5052240;28;20111;-54
2022/09/09 08:33:26;;;;;;;4.20;2.60;;;19.80;97.90;;;;;;5052588;28;20523;-56
2022/09/09 08:36:17;;;;;;;8.18;3.25;;;19.90;97.50;;;;;;5053031;28;20029;-56
2022/09/09 08:39:05;;;;;;;5.63;2.80;;;20.00;97.20;;;;;;5057247;28;20123;-53
2022/09/09 08:42:09;;;;;;;5.68;2.90;;;20.10;97.10;;;;;;5070643;28;20100;-54
2022/09/09 08:45:24;;;;;;;8.15;3.55;;;20.00;96.90;;;;;;5061608;28;20020;-55
2022/09/09 08:48:16;;;;;;;6.60;2.92;;;20.10;97.10;;;;;;5072832;28;20025;-54
2022/09/09 08:51:07;;;;;;;4.47;2.30;;;20.20;97.10;;;;;;5072176;28;20540;-55
2022/09/09 08:53:56;;;;;;;5.45;2.53;;;20.40;96.70;;;;;;5070260;28;20029;-54
2022/09/09 08:56:44;;;;;;;9.45;2.92;;;20.40;96.80;;;;;;5065578;28;20036;-55
2022/09/09 08:59:30;;;;;;;5.28;2.78;;;20.30;96.70;;;;;;5079014;28;20020;-56
2022/09/09 09:03:03;;;;;;;9.80;2.75;;;20.40;96.80;;;;;;5089834;28;20032;-53
2022/09/09 09:06:30;;;;;;;5.80;2.85;;;20.60;96.40;;;;;;5063761;28;20038;-56
2022/09/09 09:09:45;;;;;;;5.80;2.78;;;20.60;96.30;;;;;;5059326;28;20511;-57
2022/09/09 09:12:44;;;;;;;5.30;2.55;;;20.60;96.60;;;;;;5067512;28;20032;-54
2022/09/09 09:15:38;;;;;;;5.72;2.90;;;20.50;96.40;;;;;;5082799;28;20020;-51
2022/09/09 09:18:24;;;;;;;7.80;3.28;;;20.50;96.70;;;;;;5038743;28;20049;-54
2022/09/09 09:21:21;;;;;;;7.35;2.60;;;20.70;96.80;;;;;;5052366;28;20347;-54
2022/09/09 09:24:19;;;;;;;7.38;3.13;;;20.80;96.70;;;;;;5051485;28;20107;-54
2022/09/09 09:27:14;;;;;;;12.13;3.28;;;20.80;96.50;;;;;;5052452;28;20110;-63
2022/09/09 09:30:05;;;;;;;6.47;2.95;;;20.80;97.10;;;;;;5052466;28;20449;-54
2022/09/09 09:32:59;;;;;;;5.53;2.65;;;21.10;96.80;;;;;;5036933;28;20635;-53
2022/09/09 09:35:45;;;;;;;4.70;2.92;;;21.20;96.40;;;;;;5053020;28;20033;-55
2022/09/09 09:38:31;;;;;;;6.82;2.85;;;21.00;96.50;;;;;;5070572;28;20029;-54
2022/09/09 09:41:29;;;;;;;5.97;2.88;;;21.10;96.90;;;;;;5071997;28;20062;-55
2022/09/09 09:44:31;;;;;;;7.22;2.90;;;21.50;96.10;;;;;;5070701;28;20033;-54
2022/09/09 09:47:19;;;;;;;10.98;3.53;;;21.60;95.50;;;;;;5069700;28;20424;-52
2022/09/09 09:50:18;;;;;;;4.63;2.63;;;21.70;95.60;;;;;;5070558;28;20024;-53
2022/09/09 09:53:06;;;;;;;6.03;2.95;;;21.40;95.70;;;;;;5071264;28;20021;-53
2022/09/09 09:56:13;;;;;;;7.95;2.90;;;21.30;96.00;;;;;;5071247;28;20177;-54
2022/09/09 09:58:59;;;;;;;6.78;2.80;;;21.20;96.00;;;;;;5070924;28;20036;-56
2022/09/09 10:01:45;;;;;;;6.85;3.08;;;21.10;96.10;;;;;;5041764;28;20023;-51
2022/09/09 10:04:33;;;;;;;5.97;3.03;;;21.20;96.10;;;;;;5070315;28;20029;-50
2022/09/09 10:07:22;;;;;;;6.78;2.83;;;21.10;95.90;;;;;;5023470;28;20108;-50
2022/09/09 10:10:15;;;;;;;6.38;3.13;;;21.30;96.10;;;;;;5070548;28;20392;-58
2022/09/09 10:13:25;;;;;;;4.38;2.45;;;21.50;95.60;;;;;;5070650;28;20020;-56
2022/09/09 10:16:21;;;;;;;6.38;2.60;;;21.50;95.10;;;;;;5070694;28;20038;-57
2022/09/09 10:19:15;;;;;;;6.03;2.55;;;21.60;94.90;;;;;;5070570;28;20394;-56
2022/09/09 10:22:21;;;;;;;8.15;2.65;;;21.70;94.70;;;;;;5070419;28;20399;-55
2022/09/09 10:25:30;;;;;;;7.20;2.40;;;21.80;95.20;;;;;;5089292;28;20024;-55
2022/09/09 10:28:24;;;;;;;7.45;2.80;;;22.10;94.50;;;;;;5080697;28;20046;-53
2022/09/09 10:31:51;;;;;;;7.10;2.47;;;22.30;94.10;;;;;;5069777;28;20025;-52
2022/09/09 10:35:00;;;;;;;7.22;2.47;;;22.00;93.40;;;;;;5069831;28;20063;-55
2022/09/09 10:38:01;;;;;;;7.15;2.53;;;22.00;94.20;;;;;;5071589;28;20111;-51
2022/09/09 10:41:03;;;;;;;4.13;2.88;;;21.80;94.60;;;;;;5071378;28;20554;-57
2022/09/09 10:44:34;;;;;;;3.92;2.60;;;21.60;95.00;;;;;;5070729;28;20033;-54
2022/09/09 10:47:58;;;;;;;5.63;2.70;;;21.40;95.80;;;;;;5049056;28;20078;-53
2022/09/09 10:50:59;;;;;;;8.73;4.00;;;21.30;96.20;;;;;;5071206;28;20515;-54
2022/09/09 10:54:13;;;;;;;6.85;3.50;;;21.40;96.60;;;;;;5073576;28;20024;-53
2022/09/09 10:57:11;;;;;;;5.63;3.03;;;21.50;96.80;;;;;;5057900;28;20028;-54
2022/09/09 11:00:03;;;;;;;7.93;2.92;;;21.20;97.60;;;;;;5059593;28;20082;-51
2022/09/09 11:03:03;;;;;;;6.30;2.60;;;20.80;98.30;;;;;;5052849;28;20024;-56
2022/09/09 11:05:56;;;;;;;7.25;3.00;;;20.70;98.30;;;;;;5072891;28;20094;-57
2022/09/09 11:08:42;;;;;;;6.20;2.67;;;20.80;98.40;;;;;;5057091;28;20048;-57
2022/09/09 11:11:44;;;;;;;9.27;3.30;;;20.90;97.90;;;;;;5075230;28;20029;-59
2022/09/09 11:14:41;;;;;;;4.68;2.50;;;21.20;98.00;;;;;;5078058;28;20073;-58
2022/09/09 11:17:40;;;;;;;4.75;2.63;;;21.40;97.10;;;;;;5067260;28;20029;-53
2022/09/09 11:20:26;;;;;;;4.38;2.30;;;21.70;95.80;;;;;;5076925;28;20043;-55
2022/09/09 11:23:18;;;;;;;7.03;3.00;;;22.00;94.90;;;;;;5072716;28;20032;-53
2022/09/09 11:26:07;;;;;;;5.13;2.72;;;22.00;94.30;;;;;;5071003;28;20024;-51
2022/09/09 11:29:05;;;;;;;5.68;2.75;;;22.10;94.70;;;;;;5047743;28;20033;-52
2022/09/09 11:32:01;;;;;;;6.97;2.58;;;22.30;94.70;;;;;;5086696;28;20103;-51
2022/09/09 11:34:56;;;;;;;5.25;2.53;;;22.40;94.40;;;;;;5068277;28;20435;-53
2022/09/09 11:38:06;;;;;;;3.72;2.40;;;22.40;94.20;;;;;;5069025;28;20040;-52
2022/09/09 11:41:01;;;;;;;8.48;2.67;;;22.60;94.00;;;;;;5070587;28;20021;-49
2022/09/09 11:43:48;;;;;;;;;;;22.80;93.80;;;;;;5070952;28;20032;-52
2022/09/09 11:46:38;;;;;;;5.10;2.55;;;22.70;92.10;;;;;;5084561;28;19912;-52
2022/09/09 11:49:45;;;;;;;6.88;2.63;;;22.70;92.70;;;;;;5088933;28;20081;-49
2022/09/09 11:52:48;;;;;;;3.65;2.30;;;22.60;92.70;;;;;;5072505;28;20401;-56
2022/09/09 11:55:36;;;;;;;5.25;2.40;;;22.50;92.30;;;;;;5086931;28;20112;-52
2022/09/09 11:58:22;;;;;;;8.75;3.58;;;22.50;92.40;;;;;;5088790;28;20027;-51
2022/09/09 12:01:27;;;;;;;5.43;2.72;;;22.50;93.30;;;;;;5073786;28;20054;-53
2022/09/09 12:04:28;;;;;;;5.57;2.35;;;22.70;93.30;;;;;;5074781;28;20031;-52
2022/09/09 12:07:32;;;;;;;5.72;2.65;;;22.50;93.20;;;;;;5069589;28;20090;-55
2022/09/09 12:10:34;;;;;;;5.97;2.75;;;22.70;93.20;;;;;;5067382;28;20509;-50
2022/09/09 12:13:23;;;;;;;4.68;3.00;;;22.80;92.50;;;;;;5074831;28;20024;-53
2022/09/09 12:16:30;;;;;;;3.40;2.42;;;22.80;92.70;;;;;;5067370;28;20407;-55
2022/09/09 12:19:21;;;;;;;6.38;2.70;;;22.90;92.60;;;;;;5079809;28;20032;-54
2022/09/09 12:22:28;;;;;;;7.18;2.60;;;23.00;92.50;;;;;;5088536;28;20048;-54
2022/09/09 12:25:47;;;;;;;3.47;2.55;;;23.10;92.10;;;;;;5072816;28;20546;-56
2022/09/09 12:29:00;;;;;;;6.03;3.00;;;23.20;92.40;;;;;;5064587;28;20055;-52
2022/09/09 12:32:05;;;;;;;4.22;2.75;;;23.10;92.20;;;;;;5084986;28;20031;-57
2022/09/09 12:35:03;;;;;;;;;;;22.90;91.90;;;;;;5073350;28;20165;-50
2022/09/09 12:37:56;;;;;;;5.05;2.53;;;22.70;92.40;;;;;;5067250;28;19990;-56
2022/09/09 12:40:53;;;;;;;6.45;2.92;;;22.40;92.40;;;;;;5084215;28;20020;-49
2022/09/09 12:43:39;;;;;;;5.60;2.28;;;22.40;91.60;;;;;;5072965;28;20094;-53
2022/09/09 12:46:43;;;;;;;5.78;2.70;;;22.50;90.50;;;;;;5073759;28;20685;-53
2022/09/09 12:49:36;;;;;;;6.18;3.42;;;22.40;90.30;;;;;;5074557;28;20048;-54
2022/09/09 12:52:36;;;;;;;5.05;2.38;;;22.40;90.70;;;;;;5076674;28;20408;-52
2022/09/09 12:55:27;;;;;;;4.22;2.30;;;22.40;90.50;;;;;;5088151;28;20123;-52
2022/09/09 12:58:16;;;;;;;7.25;2.28;;;22.40;90.60;;;;;;5091068;28;20032;-54
2022/09/09 13:01:05;;;;;;;5.50;2.50;;;22.40;90.90;;;;;;5062893;28;20029;-53
2022/09/09 13:03:51;;;;;;;3.40;2.20;;;22.30;91.00;;;;;;5070484;28;20560;-50
2022/09/09 13:06:37;;;;;;;5.50;2.63;;;22.40;91.00;;;;;;5072360;28;20024;-48
2022/09/09 13:09:23;;;;;;;5.43;2.90;;;22.40;91.20;;;;;;5072827;28;20028;-51
2022/09/09 13:12:15;;;;;;;4.65;2.30;;;22.50;91.30;;;;;;5075094;28;20111;-53
2022/09/09 13:15:02;;;;;;;5.28;2.80;;;22.60;90.30;;;;;;5060668;28;20017;-48
2022/09/09 13:17:55;;;;;;;6.88;2.97;;;22.50;90.70;;;;;;5070757;28;20032;-48
2022/09/09 13:20:47;;;;;;;6.32;2.75;;;22.80;90.40;;;;;;5083693;28;20043;-49
2022/09/09 13:23:35;;;;;;;4.05;2.30;;;22.90;88.80;;;;;;5082841;28;20029;-54
2022/09/09 13:26:26;;;;;;;4.60;2.88;;;22.70;89.60;;;;;;5072542;28;20496;-51
2022/09/09 13:29:19;;;;;;;8.25;2.95;;;22.60;90.20;;;;;;5070215;28;20075;-51
2022/09/09 13:32:12;;;;;;;7.22;2.83;;;22.90;88.80;;;;;;5080462;28;20028;-56
2022/09/09 13:35:01;;;;;;;5.28;2.50;;;23.20;88.90;;;;;;5090282;28;20032;-52
2022/09/09 13:37:47;;;;;;;4.35;2.42;;;23.50;87.60;;;;;;5068545;28;20028;-51
2022/09/09 13:40:34;;;;;;;2.65;2.00;;;23.60;86.80;;;;;;5085632;28;20060;-52
2022/09/09 13:43:23;;;;;;;5.65;2.28;;;23.70;87.50;;;;;;5080854;28;20076;-52
2022/09/09 13:46:42;;;;;;;6.75;2.33;;;23.20;88.00;;;;;;5071546;28;20024;-51
2022/09/09 13:49:30;;;;;;;7.05;2.40;;;22.80;88.70;;;;;;5054222;28;20071;-55
2022/09/09 13:52:18;;;;;;;7.20;2.38;;;22.50;88.30;;;;;;5079598;28;20031;-50
2022/09/09 13:55:06;;;;;;;3.20;2.30;;;22.40;88.20;;;;;;5091190;28;20039;-50
2022/09/09 13:58:04;;;;;;;5.38;2.60;;;22.30;89.50;;;;;;5088919;28;20089;-49
2022/09/09 14:00:54;;;;;;;3.50;2.13;;;22.50;89.40;;;;;;5090815;28;20020;-49
2022/09/09 14:03:42;;;;;;;4.90;2.28;;;22.60;88.40;;;;;;5041443;28;20470;-50
2022/09/09 14:06:29;;;;;;;5.45;2.20;;;22.70;87.60;;;;;;5072105;28;20020;-49
2022/09/09 14:09:17;;;;;;;4.15;2.13;;;22.90;87.40;;;;;;5050570;28;20040;-51
2022/09/09 14:12:04;;;;;;;5.78;2.20;;;23.20;87.10;;;;;;5073845;28;20115;-52
2022/09/09 14:14:50;;;;;;;3.65;2.20;;;23.60;86.60;;;;;;5079595;28;20101;-51
2022/09/09 14:17:36;;;;;;;4.93;2.10;;;24.00;83.60;;;;;;5076816;28;20036;-50
2022/09/09 14:20:22;;;;;;;4.25;2.03;;;24.20;83.20;;;;;;5071486;28;20039;-51
2022/09/09 14:23:11;;;;;;;3.78;2.47;;;24.60;83.20;;;;;;5077513;28;20103;-52
2022/09/09 14:25:57;;;;;;;5.07;2.47;;;24.70;82.40;;;;;;5079868;28;20025;-54
2022/09/09 14:28:44;;;;;;;5.45;2.50;;;24.60;82.30;;;;;;5078242;28;20097;-56
2022/09/09 14:31:30;;;;;;;4.43;2.03;;;24.50;81.50;;;;;;5071154;28;20036;-56
2022/09/09 14:34:16;;;;;;;2.97;1.83;;;24.40;78.50;;;;;;5058920;28;20036;-55
2022/09/09 14:37:02;;;;;;;4.45;1.77;;;24.40;78.30;;;;;;5079316;28;20488;-53
2022/09/09 14:39:50;;;;;;;8.27;2.47;;;24.40;77.80;;;;;;5070113;28;20036;-55
2022/09/09 14:42:36;;;;;;;6.13;2.50;;;24.10;77.20;;;;;;5055313;28;20020;-52
2022/09/09 14:45:24;;;;;;;4.07;1.77;;;24.20;77.30;;;;;;5070482;28;20168;-50
2022/09/09 14:48:10;;;;;;;3.17;1.80;;;24.40;76.30;;;;;;5075326;28;20032;-57